Terminal Aerodrome Forecast
Issued by NWS Cleveland, OH

Home | Current Version | Previous Version | Text Only | Print | Product List | Glossary On
Versions: 1 2 3 4 5 6 7 8 9 10 11 12 13 14 15 16
000
FTUS41 KCLE 291100 RRA
TAFTOL
TAF
KTOL 291142Z 2912/3012 16010KT P6SM VCSH BKN035 OVC100
      TEMPO 2912/2913 -FZDZPL BKN025 OVC035
     FM291400 19012G20KT P6SM SCT035 OVC080
     FM291600 22010KT 4SM -DZ BR SCT008 OVC025
      TEMPO 2918/2920 2SM -RASN OVC008
     FM292000 30018G30KT 3SM -SN BR OVC004
     FM300100 30015G25KT P6SM OVC015=

USA.gov is the U.S. government's official web portal to all federal, state and local government web resources and services.